sensor_id;sensor_type;location;lat;lon;timestamp;temperature;humidity
10644;DHT22;5370;50.132;8.626;2022-08-03T00:01:16;21.00;53.00
10644;DHT22;5370;50.132;8.626;2022-08-03T00:03:42;21.00;53.10
10644;DHT22;5370;50.132;8.626;2022-08-03T00:06:08;21.00;53.20
10644;DHT22;5370;50.132;8.626;2022-08-03T00:08:33;21.00;53.20
10644;DHT22;5370;50.132;8.626;2022-08-03T00:10:59;21.00;53.20
10644;DHT22;5370;50.132;8.626;2022-08-03T00:13:25;21.00;53.20
10644;DHT22;5370;50.132;8.626;2022-08-03T00:15:51;20.90;53.20
10644;DHT22;5370;50.132;8.626;2022-08-03T00:18:17;20.90;53.30
10644;DHT22;5370;50.132;8.626;2022-08-03T00:20:43;20.80;53.30
10644;DHT22;5370;50.132;8.626;2022-08-03T00:23:08;20.80;53.30
10644;DHT22;5370;50.132;8.626;2022-08-03T00:25:35;20.80;53.30
10644;DHT22;5370;50.132;8.626;2022-08-03T00:28:02;20.80;53.40
10644;DHT22;5370;50.132;8.626;2022-08-03T00:30:28;20.70;53.40
10644;DHT22;5370;50.132;8.626;2022-08-03T00:32:54;20.70;53.60
10644;DHT22;5370;50.132;8.626;2022-08-03T00:35:19;20.60;53.70
10644;DHT22;5370;50.132;8.626;2022-08-03T00:37:45;20.60;53.80
10644;DHT22;5370;50.132;8.626;2022-08-03T00:40:13;20.60;53.90
10644;DHT22;5370;50.132;8.626;2022-08-03T00:42:50;20.50;54.00
10644;DHT22;5370;50.132;8.626;2022-08-03T00:45:17;20.40;54.10
10644;DHT22;5370;50.132;8.626;2022-08-03T00:47:43;20.40;54.30
10644;DHT22;5370;50.132;8.626;2022-08-03T00:50:09;20.30;54.40
10644;DHT22;5370;50.132;8.626;2022-08-03T00:52:34;20.30;54.40
10644;DHT22;5370;50.132;8.626;2022-08-03T00:55:02;20.20;54.50
10644;DHT22;5370;50.132;8.626;2022-08-03T00:57:29;20.20;54.60
10644;DHT22;5370;50.132;8.626;2022-08-03T00:59:56;20.20;54.60
10644;DHT22;5370;50.132;8.626;2022-08-03T01:02:22;20.20;54.80
10644;DHT22;5370;50.132;8.626;2022-08-03T01:04:47;20.10;54.80
10644;DHT22;5370;50.132;8.626;2022-08-03T01:07:26;20.10;54.90
10644;DHT22;5370;50.132;8.626;2022-08-03T01:10:02;20.00;54.90
10644;DHT22;5370;50.132;8.626;2022-08-03T01:12:42;20.00;55.10
10644;DHT22;5370;50.132;8.626;2022-08-03T01:18:00;19.90;55.40
10644;DHT22;5370;50.132;8.626;2022-08-03T01:20:32;19.80;55.40
10644;DHT22;5370;50.132;8.626;2022-08-03T01:23:23;19.80;55.40
10644;DHT22;5370;50.132;8.626;2022-08-03T01:31:25;19.70;55.50
10644;DHT22;5370;50.132;8.626;2022-08-03T01:33:56;19.70;55.60
10644;DHT22;5370;50.132;8.626;2022-08-03T01:36:28;19.70;55.70
10644;DHT22;5370;50.132;8.626;2022-08-03T01:38:57;19.60;55.70
10644;DHT22;5370;50.132;8.626;2022-08-03T01:41:30;19.60;55.70
10644;DHT22;5370;50.132;8.626;2022-08-03T01:43:59;19.60;55.80
10644;DHT22;5370;50.132;8.626;2022-08-03T01:46:26;19.60;56.00
10644;DHT22;5370;50.132;8.626;2022-08-03T01:48:54;19.60;56.10
10644;DHT22;5370;50.132;8.626;2022-08-03T01:51:21;19.50;56.00
10644;DHT22;5370;50.132;8.626;2022-08-03T01:53:48;19.50;56.20
10644;DHT22;5370;50.132;8.626;2022-08-03T01:56:16;19.50;56.30
10644;DHT22;5370;50.132;8.626;2022-08-03T01:58:45;19.40;56.20
10644;DHT22;5370;50.132;8.626;2022-08-03T02:01:14;19.40;56.40
10644;DHT22;5370;50.132;8.626;2022-08-03T02:03:42;19.40;56.50
10644;DHT22;5370;50.132;8.626;2022-08-03T02:06:11;19.40;56.50
10644;DHT22;5370;50.132;8.626;2022-08-03T02:08:39;19.40;56.50
10644;DHT22;5370;50.132;8.626;2022-08-03T02:11:06;19.30;56.50
10644;DHT22;5370;50.132;8.626;2022-08-03T02:13:33;19.30;56.50
10644;DHT22;5370;50.132;8.626;2022-08-03T02:16:00;19.30;56.70
10644;DHT22;5370;50.132;8.626;2022-08-03T02:18:28;19.30;56.90
10644;DHT22;5370;50.132;8.626;2022-08-03T02:20:55;19.20;56.90
10644;DHT22;5370;50.132;8.626;2022-08-03T02:23:21;19.20;57.10
10644;DHT22;5370;50.132;8.626;2022-08-03T02:25:54;19.20;57.20
10644;DHT22;5370;50.132;8.626;2022-08-03T02:28:25;19.10;57.20
10644;DHT22;5370;50.132;8.626;2022-08-03T02:30:54;19.10;57.40
10644;DHT22;5370;50.132;8.626;2022-08-03T02:33:27;19.10;57.40
10644;DHT22;5370;50.132;8.626;2022-08-03T02:35:56;19.10;57.50
10644;DHT22;5370;50.132;8.626;2022-08-03T02:38:27;19.00;57.50
10644;DHT22;5370;50.132;8.626;2022-08-03T02:40:57;19.00;57.60
10644;DHT22;5370;50.132;8.626;2022-08-03T02:43:23;19.00;57.70
10644;DHT22;5370;50.132;8.626;2022-08-03T02:45:50;19.00;57.70
10644;DHT22;5370;50.132;8.626;2022-08-03T02:48:20;19.00;57.70
10644;DHT22;5370;50.132;8.626;2022-08-03T02:50:50;19.00;57.80
10644;DHT22;5370;50.132;8.626;2022-08-03T02:53:17;19.00;57.90
10644;DHT22;5370;50.132;8.626;2022-08-03T02:55:45;18.90;57.90
10644;DHT22;5370;50.132;8.626;2022-08-03T02:58:13;18.90;58.00
10644;DHT22;5370;50.132;8.626;2022-08-03T03:00:39;18.90;58.20
10644;DHT22;5370;50.132;8.626;2022-08-03T03:03:06;18.80;58.30
10644;DHT22;5370;50.132;8.626;2022-08-03T03:05:33;18.80;58.60
10644;DHT22;5370;50.132;8.626;2022-08-03T03:08:01;18.80;58.80
10644;DHT22;5370;50.132;8.626;2022-08-03T03:10:26;18.70;58.80
10644;DHT22;5370;50.132;8.626;2022-08-03T03:12:55;18.70;59.00
10644;DHT22;5370;50.132;8.626;2022-08-03T03:15:23;18.70;59.00
10644;DHT22;5370;50.132;8.626;2022-08-03T03:17:50;18.60;59.30
10644;DHT22;5370;50.132;8.626;2022-08-03T03:20:18;18.60;59.30
10644;DHT22;5370;50.132;8.626;2022-08-03T03:22:47;18.60;59.40
10644;DHT22;5370;50.132;8.626;2022-08-03T03:25:13;18.60;59.30
10644;DHT22;5370;50.132;8.626;2022-08-03T03:27:39;18.50;59.30
10644;DHT22;5370;50.132;8.626;2022-08-03T03:30:05;18.50;59.30
10644;DHT22;5370;50.132;8.626;2022-08-03T03:32:31;18.50;59.30
10644;DHT22;5370;50.132;8.626;2022-08-03T03:34:57;18.50;59.50
10644;DHT22;5370;50.132;8.626;2022-08-03T03:37:25;18.50;59.70
10644;DHT22;5370;50.132;8.626;2022-08-03T03:39:52;18.50;59.80
10644;DHT22;5370;50.132;8.626;2022-08-03T03:42:18;18.40;60.10
10644;DHT22;5370;50.132;8.626;2022-08-03T03:44:44;18.40;60.20
10644;DHT22;5370;50.132;8.626;2022-08-03T03:47:09;18.30;60.20
10644;DHT22;5370;50.132;8.626;2022-08-03T03:49:35;18.30;60.40
10644;DHT22;5370;50.132;8.626;2022-08-03T03:52:01;18.30;60.50
10644;DHT22;5370;50.132;8.626;2022-08-03T03:54:41;18.30;60.60
10644;DHT22;5370;50.132;8.626;2022-08-03T03:57:08;18.30;60.70
10644;DHT22;5370;50.132;8.626;2022-08-03T03:59:37;18.30;60.80
10644;DHT22;5370;50.132;8.626;2022-08-03T04:02:05;18.20;60.90
10644;DHT22;5370;50.132;8.626;2022-08-03T04:04:32;18.20;61.00
10644;DHT22;5370;50.132;8.626;2022-08-03T04:07:17;18.20;61.10
10644;DHT22;5370;50.132;8.626;2022-08-03T04:10:02;18.20;61.10
10644;DHT22;5370;50.132;8.626;2022-08-03T04:12:50;18.20;61.20
10644;DHT22;5370;50.132;8.626;2022-08-03T04:15:22;18.20;61.30
10644;DHT22;5370;50.132;8.626;2022-08-03T04:17:48;18.20;61.50
10644;DHT22;5370;50.132;8.626;2022-08-03T04:20:18;18.20;61.40
10644;DHT22;5370;50.132;8.626;2022-08-03T04:22:45;18.20;61.50
10644;DHT22;5370;50.132;8.626;2022-08-03T04:25:14;18.20;61.50
10644;DHT22;5370;50.132;8.626;2022-08-03T04:27:42;18.20;61.60
10644;DHT22;5370;50.132;8.626;2022-08-03T04:30:09;18.20;61.60
10644;DHT22;5370;50.132;8.626;2022-08-03T04:32:36;18.20;61.70
10644;DHT22;5370;50.132;8.626;2022-08-03T04:35:03;18.20;61.70
10644;DHT22;5370;50.132;8.626;2022-08-03T04:37:38;18.20;61.70
10644;DHT22;5370;50.132;8.626;2022-08-03T04:40:11;18.20;61.80
10644;DHT22;5370;50.132;8.626;2022-08-03T04:42:37;18.30;61.90
10644;DHT22;5370;50.132;8.626;2022-08-03T04:45:05;18.30;61.90
10644;DHT22;5370;50.132;8.626;2022-08-03T04:47:32;18.30;61.80
10644;DHT22;5370;50.132;8.626;2022-08-03T04:50:00;18.40;61.80
10644;DHT22;5370;50.132;8.626;2022-08-03T04:52:26;18.40;61.70
10644;DHT22;5370;50.132;8.626;2022-08-03T04:54:52;18.40;61.60
10644;DHT22;5370;50.132;8.626;2022-08-03T04:57:17;18.50;61.50
10644;DHT22;5370;50.132;8.626;2022-08-03T04:59:44;18.60;61.40
10644;DHT22;5370;50.132;8.626;2022-08-03T05:02:09;18.60;61.20
10644;DHT22;5370;50.132;8.626;2022-08-03T05:04:35;18.70;61.20
10644;DHT22;5370;50.132;8.626;2022-08-03T05:07:02;18.70;61.00
10644;DHT22;5370;50.132;8.626;2022-08-03T05:09:28;18.80;61.00
10644;DHT22;5370;50.132;8.626;2022-08-03T05:11:53;18.90;60.90
10644;DHT22;5370;50.132;8.626;2022-08-03T05:14:19;18.90;60.70
10644;DHT22;5370;50.132;8.626;2022-08-03T05:16:45;19.00;60.60
10644;DHT22;5370;50.132;8.626;2022-08-03T05:19:11;19.10;60.50
10644;DHT22;5370;50.132;8.626;2022-08-03T05:21:36;19.10;60.30
10644;DHT22;5370;50.132;8.626;2022-08-03T05:24:02;19.20;60.10
10644;DHT22;5370;50.132;8.626;2022-08-03T05:26:27;19.40;60.00
10644;DHT22;5370;50.132;8.626;2022-08-03T05:28:53;19.60;59.60
10644;DHT22;5370;50.132;8.626;2022-08-03T05:31:19;19.90;59.30
10644;DHT22;5370;50.132;8.626;2022-08-03T05:33:44;20.10;58.70
10644;DHT22;5370;50.132;8.626;2022-08-03T05:36:10;20.30;57.80
10644;DHT22;5370;50.132;8.626;2022-08-03T05:38:35;20.40;57.50
10644;DHT22;5370;50.132;8.626;2022-08-03T05:41:05;20.40;57.40
10644;DHT22;5370;50.132;8.626;2022-08-03T05:43:30;20.50;57.30
10644;DHT22;5370;50.132;8.626;2022-08-03T05:45:56;20.60;57.20
10644;DHT22;5370;50.132;8.626;2022-08-03T05:48:23;20.70;57.00
10644;DHT22;5370;50.132;8.626;2022-08-03T05:50:48;21.00;56.50
10644;DHT22;5370;50.132;8.626;2022-08-03T05:53:14;21.40;55.70
10644;DHT22;5370;50.132;8.626;2022-08-03T05:55:39;21.70;54.40
10644;DHT22;5370;50.132;8.626;2022-08-03T05:58:05;22.10;53.70
10644;DHT22;5370;50.132;8.626;2022-08-03T06:00:30;22.40;53.10
10644;DHT22;5370;50.132;8.626;2022-08-03T06:02:56;22.60;52.30
10644;DHT22;5370;50.132;8.626;2022-08-03T06:05:21;22.80;51.90
10644;DHT22;5370;50.132;8.626;2022-08-03T06:07:47;22.80;51.20
10644;DHT22;5370;50.132;8.626;2022-08-03T06:10:12;22.90;51.00
10644;DHT22;5370;50.132;8.626;2022-08-03T06:12:38;22.90;51.00
10644;DHT22;5370;50.132;8.626;2022-08-03T06:15:06;23.00;51.20
10644;DHT22;5370;50.132;8.626;2022-08-03T06:17:31;23.20;50.70
10644;DHT22;5370;50.132;8.626;2022-08-03T06:19:57;23.70;50.00
10644;DHT22;5370;50.132;8.626;2022-08-03T06:22:22;24.70;48.90
10644;DHT22;5370;50.132;8.626;2022-08-03T06:24:48;26.00;47.40
10644;DHT22;5370;50.132;8.626;2022-08-03T06:27:14;27.50;45.30
10644;DHT22;5370;50.132;8.626;2022-08-03T06:29:39;29.00;42.50
10644;DHT22;5370;50.132;8.626;2022-08-03T06:32:05;30.50;39.50
10644;DHT22;5370;50.132;8.626;2022-08-03T06:34:30;31.70;37.00
10644;DHT22;5370;50.132;8.626;2022-08-03T06:36:56;32.90;35.30
10644;DHT22;5370;50.132;8.626;2022-08-03T06:39:21;33.90;34.00
10644;DHT22;5370;50.132;8.626;2022-08-03T06:41:47;34.90;32.70
10644;DHT22;5370;50.132;8.626;2022-08-03T06:44:13;35.60;30.20
10644;DHT22;5370;50.132;8.626;2022-08-03T06:46:38;35.80;29.00
10644;DHT22;5370;50.132;8.626;2022-08-03T06:49:05;36.10;28.70
10644;DHT22;5370;50.132;8.626;2022-08-03T06:51:30;36.50;28.20
10644;DHT22;5370;50.132;8.626;2022-08-03T06:53:56;36.90;27.80
10644;DHT22;5370;50.132;8.626;2022-08-03T06:56:22;37.60;27.40
10644;DHT22;5370;50.132;8.626;2022-08-03T06:58:47;38.50;27.10
10644;DHT22;5370;50.132;8.626;2022-08-03T07:01:13;39.40;25.90
10644;DHT22;5370;50.132;8.626;2022-08-03T07:03:38;39.90;25.00
10644;DHT22;5370;50.132;8.626;2022-08-03T07:06:05;40.30;24.30
10644;DHT22;5370;50.132;8.626;2022-08-03T07:08:31;40.60;23.90
10644;DHT22;5370;50.132;8.626;2022-08-03T07:10:56;40.90;23.60
10644;DHT22;5370;50.132;8.626;2022-08-03T07:13:22;41.20;23.10
10644;DHT22;5370;50.132;8.626;2022-08-03T07:15:47;41.50;23.00
10644;DHT22;5370;50.132;8.626;2022-08-03T07:18:13;41.70;22.50
10644;DHT22;5370;50.132;8.626;2022-08-03T07:20:39;41.80;22.20
10644;DHT22;5370;50.132;8.626;2022-08-03T07:23:05;42.00;22.00
10644;DHT22;5370;50.132;8.626;2022-08-03T07:25:30;42.40;22.00
10644;DHT22;5370;50.132;8.626;2022-08-03T07:27:56;43.00;21.80
10644;DHT22;5370;50.132;8.626;2022-08-03T07:30:22;43.80;21.30
10644;DHT22;5370;50.132;8.626;2022-08-03T07:32:47;44.30;20.60
10644;DHT22;5370;50.132;8.626;2022-08-03T07:35:13;44.70;20.30
10644;DHT22;5370;50.132;8.626;2022-08-03T07:37:39;45.30;19.90
10644;DHT22;5370;50.132;8.626;2022-08-03T07:40:07;45.70;19.50
10644;DHT22;5370;50.132;8.626;2022-08-03T07:42:33;45.90;19.30
10644;DHT22;5370;50.132;8.626;2022-08-03T07:44:58;46.30;19.00
10644;DHT22;5370;50.132;8.626;2022-08-03T07:47:29;46.50;18.70
10644;DHT22;5370;50.132;8.626;2022-08-03T07:49:55;46.90;18.40
10644;DHT22;5370;50.132;8.626;2022-08-03T07:52:21;47.20;18.20
10644;DHT22;5370;50.132;8.626;2022-08-03T07:55:06;47.30;18.00
10644;DHT22;5370;50.132;8.626;2022-08-03T07:57:32;47.90;17.90
10644;DHT22;5370;50.132;8.626;2022-08-03T07:59:58;48.40;17.60
10644;DHT22;5370;50.132;8.626;2022-08-03T08:02:24;48.90;17.20
10644;DHT22;5370;50.132;8.626;2022-08-03T08:04:50;49.30;16.70
10644;DHT22;5370;50.132;8.626;2022-08-03T08:07:16;49.80;16.40
10644;DHT22;5370;50.132;8.626;2022-08-03T08:09:41;50.40;16.10
10644;DHT22;5370;50.132;8.626;2022-08-03T08:12:07;50.90;15.90
10644;DHT22;5370;50.132;8.626;2022-08-03T08:14:34;51.40;15.50
10644;DHT22;5370;50.132;8.626;2022-08-03T08:17:00;51.60;15.00
10644;DHT22;5370;50.132;8.626;2022-08-03T08:19:25;51.90;15.00
10644;DHT22;5370;50.132;8.626;2022-08-03T08:21:51;52.30;14.80
10644;DHT22;5370;50.132;8.626;2022-08-03T08:24:16;52.70;14.90
10644;DHT22;5370;50.132;8.626;2022-08-03T08:26:42;52.80;14.90
10644;DHT22;5370;50.132;8.626;2022-08-03T08:29:08;53.20;14.20
10644;DHT22;5370;50.132;8.626;2022-08-03T08:31:33;53.60;14.10
10644;DHT22;5370;50.132;8.626;2022-08-03T08:33:59;53.50;13.70
10644;DHT22;5370;50.132;8.626;2022-08-03T08:36:30;53.10;13.70
10644;DHT22;5370;50.132;8.626;2022-08-03T08:38:56;52.70;13.80
10644;DHT22;5370;50.132;8.626;2022-08-03T08:41:22;52.40;14.00
10644;DHT22;5370;50.132;8.626;2022-08-03T08:43:47;52.20;14.20
10644;DHT22;5370;50.132;8.626;2022-08-03T08:46:13;51.90;14.20
10644;DHT22;5370;50.132;8.626;2022-08-03T08:48:41;51.60;14.30
10644;DHT22;5370;50.132;8.626;2022-08-03T08:51:08;51.00;14.50
10644;DHT22;5370;50.132;8.626;2022-08-03T08:53:36;50.00;14.90
10644;DHT22;5370;50.132;8.626;2022-08-03T08:56:03;48.80;15.60
10644;DHT22;5370;50.132;8.626;2022-08-03T08:58:34;47.20;15.90
10644;DHT22;5370;50.132;8.626;2022-08-03T09:01:01;45.60;16.90
10644;DHT22;5370;50.132;8.626;2022-08-03T09:03:26;44.10;17.60
10644;DHT22;5370;50.132;8.626;2022-08-03T09:05:53;42.50;18.60
10644;DHT22;5370;50.132;8.626;2022-08-03T09:08:19;40.90;19.40
10644;DHT22;5370;50.132;8.626;2022-08-03T09:10:46;39.60;20.40
10644;DHT22;5370;50.132;8.626;2022-08-03T09:13:11;38.30;21.50
10644;DHT22;5370;50.132;8.626;2022-08-03T09:15:37;37.30;22.50
10644;DHT22;5370;50.132;8.626;2022-08-03T09:18:03;36.30;23.50
10644;DHT22;5370;50.132;8.626;2022-08-03T09:20:32;35.50;24.50
10644;DHT22;5370;50.132;8.626;2022-08-03T09:23:03;34.80;25.00
10644;DHT22;5370;50.132;8.626;2022-08-03T09:25:34;34.30;25.50
10644;DHT22;5370;50.132;8.626;2022-08-03T09:30:29;33.40;26.60
10644;DHT22;5370;50.132;8.626;2022-08-03T09:33:04;33.10;26.90
10644;DHT22;5370;50.132;8.626;2022-08-03T09:35:30;32.80;27.20
10644;DHT22;5370;50.132;8.626;2022-08-03T09:38:29;32.60;27.40
10644;DHT22;5370;50.132;8.626;2022-08-03T09:40:55;32.40;27.80
10644;DHT22;5370;50.132;8.626;2022-08-03T09:43:21;32.30;28.00
10644;DHT22;5370;50.132;8.626;2022-08-03T09:45:49;32.20;28.40
10644;DHT22;5370;50.132;8.626;2022-08-03T09:48:28;32.10;28.50
10644;DHT22;5370;50.132;8.626;2022-08-03T09:50:58;32.10;28.90
10644;DHT22;5370;50.132;8.626;2022-08-03T09:53:25;32.10;29.00
10644;DHT22;5370;50.132;8.626;2022-08-03T09:55:54;32.10;28.80
10644;DHT22;5370;50.132;8.626;2022-08-03T09:58:22;32.10;28.70
10644;DHT22;5370;50.132;8.626;2022-08-03T10:01:00;32.10;28.60
10644;DHT22;5370;50.132;8.626;2022-08-03T10:03:30;32.10;28.80
10644;DHT22;5370;50.132;8.626;2022-08-03T10:05:56;32.10;29.00
10644;DHT22;5370;50.132;8.626;2022-08-03T10:08:22;32.10;28.90
10644;DHT22;5370;50.132;8.626;2022-08-03T10:10:50;32.10;28.80
10644;DHT22;5370;50.132;8.626;2022-08-03T10:13:18;32.10;28.90
10644;DHT22;5370;50.132;8.626;2022-08-03T10:15:45;32.10;29.00
10644;DHT22;5370;50.132;8.626;2022-08-03T10:18:11;32.20;28.80
10644;DHT22;5370;50.132;8.626;2022-08-03T10:23:13;32.20;28.80
10644;DHT22;5370;50.132;8.626;2022-08-03T10:25:43;32.30;28.70
10644;DHT22;5370;50.132;8.626;2022-08-03T10:28:12;32.30;28.60
10644;DHT22;5370;50.132;8.626;2022-08-03T10:30:43;32.40;28.60
10644;DHT22;5370;50.132;8.626;2022-08-03T10:33:17;32.40;28.60
10644;DHT22;5370;50.132;8.626;2022-08-03T10:35:45;32.50;28.70
10644;DHT22;5370;50.132;8.626;2022-08-03T10:38:18;32.60;28.60
10644;DHT22;5370;50.132;8.626;2022-08-03T10:40:45;32.60;28.60
10644;DHT22;5370;50.132;8.626;2022-08-03T10:43:19;32.70;28.50
10644;DHT22;5370;50.132;8.626;2022-08-03T10:45:45;32.80;28.50
10644;DHT22;5370;50.132;8.626;2022-08-03T10:48:11;32.90;28.40
10644;DHT22;5370;50.132;8.626;2022-08-03T10:50:38;32.90;28.20
10644;DHT22;5370;50.132;8.626;2022-08-03T10:53:06;33.00;28.10
10644;DHT22;5370;50.132;8.626;2022-08-03T10:55:40;33.00;28.10
10644;DHT22;5370;50.132;8.626;2022-08-03T11:01:10;33.10;28.00
10644;DHT22;5370;50.132;8.626;2022-08-03T11:06:21;33.20;27.80
10644;DHT22;5370;50.132;8.626;2022-08-03T11:08:50;33.20;27.70
10644;DHT22;5370;50.132;8.626;2022-08-03T11:11:36;33.30;27.80
10644;DHT22;5370;50.132;8.626;2022-08-03T11:14:10;33.30;27.60
10644;DHT22;5370;50.132;8.626;2022-08-03T11:17:06;33.40;27.50
10644;DHT22;5370;50.132;8.626;2022-08-03T11:19:46;33.40;28.10
10644;DHT22;5370;50.132;8.626;2022-08-03T11:22:12;33.50;27.60
10644;DHT22;5370;50.132;8.626;2022-08-03T11:27:17;33.60;27.40
10644;DHT22;5370;50.132;8.626;2022-08-03T11:29:53;33.70;27.20
10644;DHT22;5370;50.132;8.626;2022-08-03T11:35:12;33.80;26.70
10644;DHT22;5370;50.132;8.626;2022-08-03T11:40:45;33.80;26.60
10644;DHT22;5370;50.132;8.626;2022-08-03T11:46:03;33.80;26.50
10644;DHT22;5370;50.132;8.626;2022-08-03T11:48:33;33.80;26.60
10644;DHT22;5370;50.132;8.626;2022-08-03T11:51:00;33.80;26.90
10644;DHT22;5370;50.132;8.626;2022-08-03T11:53:26;33.90;27.00
10644;DHT22;5370;50.132;8.626;2022-08-03T11:55:52;34.00;26.80
10644;DHT22;5370;50.132;8.626;2022-08-03T11:58:22;34.00;26.70
10644;DHT22;5370;50.132;8.626;2022-08-03T12:00:49;34.20;26.90
10644;DHT22;5370;50.132;8.626;2022-08-03T12:03:16;34.20;26.50
10644;DHT22;5370;50.132;8.626;2022-08-03T12:05:46;34.30;26.40
10644;DHT22;5370;50.132;8.626;2022-08-03T12:08:15;34.40;26.60
10644;DHT22;5370;50.132;8.626;2022-08-03T12:10:46;34.50;26.50
10644;DHT22;5370;50.132;8.626;2022-08-03T12:13:12;34.60;26.30
10644;DHT22;5370;50.132;8.626;2022-08-03T12:15:38;34.70;26.30
10644;DHT22;5370;50.132;8.626;2022-08-03T12:18:15;34.70;26.10
10644;DHT22;5370;50.132;8.626;2022-08-03T12:20:41;34.80;26.00
10644;DHT22;5370;50.132;8.626;2022-08-03T12:23:08;34.90;26.00
10644;DHT22;5370;50.132;8.626;2022-08-03T12:25:35;34.90;26.00
10644;DHT22;5370;50.132;8.626;2022-08-03T12:28:12;35.00;25.80
10644;DHT22;5370;50.132;8.626;2022-08-03T12:30:40;35.00;25.50
10644;DHT22;5370;50.132;8.626;2022-08-03T12:33:17;35.10;25.60
10644;DHT22;5370;50.132;8.626;2022-08-03T12:36:17;35.10;25.60
10644;DHT22;5370;50.132;8.626;2022-08-03T12:38:37;35.20;25.60
10644;DHT22;5370;50.132;8.626;2022-08-03T12:41:08;35.20;25.60
10644;DHT22;5370;50.132;8.626;2022-08-03T12:43:49;35.20;25.40
10644;DHT22;5370;50.132;8.626;2022-08-03T12:46:18;35.20;25.30
10644;DHT22;5370;50.132;8.626;2022-08-03T12:49:07;35.20;25.40
10644;DHT22;5370;50.132;8.626;2022-08-03T12:51:35;35.20;25.30
10644;DHT22;5370;50.132;8.626;2022-08-03T12:54:02;35.20;25.40
10644;DHT22;5370;50.132;8.626;2022-08-03T12:56:28;35.20;25.30
10644;DHT22;5370;50.132;8.626;2022-08-03T12:58:54;35.20;25.30
10644;DHT22;5370;50.132;8.626;2022-08-03T13:01:20;35.20;25.40
10644;DHT22;5370;50.132;8.626;2022-08-03T13:03:50;35.30;25.60
10644;DHT22;5370;50.132;8.626;2022-08-03T13:06:23;35.40;25.30
10644;DHT22;5370;50.132;8.626;2022-08-03T13:09:00;35.40;25.00
10644;DHT22;5370;50.132;8.626;2022-08-03T13:11:27;35.50;25.00
10644;DHT22;5370;50.132;8.626;2022-08-03T13:13:53;35.50;24.90
10644;DHT22;5370;50.132;8.626;2022-08-03T13:16:20;35.50;25.10
10644;DHT22;5370;50.132;8.626;2022-08-03T13:18:47;35.60;25.10
10644;DHT22;5370;50.132;8.626;2022-08-03T13:21:14;35.60;25.00
10644;DHT22;5370;50.132;8.626;2022-08-03T13:23:41;35.60;24.90
10644;DHT22;5370;50.132;8.626;2022-08-03T13:26:07;35.60;25.00
10644;DHT22;5370;50.132;8.626;2022-08-03T13:28:33;35.60;25.10
10644;DHT22;5370;50.132;8.626;2022-08-03T13:30:58;35.70;25.30
10644;DHT22;5370;50.132;8.626;2022-08-03T13:33:26;35.70;25.30
10644;DHT22;5370;50.132;8.626;2022-08-03T13:35:52;35.80;25.10
10644;DHT22;5370;50.132;8.626;2022-08-03T13:38:18;35.80;24.80
10644;DHT22;5370;50.132;8.626;2022-08-03T13:40:43;35.90;24.90
10644;DHT22;5370;50.132;8.626;2022-08-03T13:43:09;35.80;24.80
10644;DHT22;5370;50.132;8.626;2022-08-03T13:45:35;35.90;24.70
10644;DHT22;5370;50.132;8.626;2022-08-03T13:48:00;35.90;24.60
10644;DHT22;5370;50.132;8.626;2022-08-03T13:50:27;36.00;24.40
10644;DHT22;5370;50.132;8.626;2022-08-03T13:52:52;35.90;24.20
10644;DHT22;5370;50.132;8.626;2022-08-03T13:55:18;35.90;24.30
10644;DHT22;5370;50.132;8.626;2022-08-03T13:57:43;35.90;24.50
10644;DHT22;5370;50.132;8.626;2022-08-03T14:00:09;36.00;24.60
10644;DHT22;5370;50.132;8.626;2022-08-03T14:02:35;35.90;24.30
10644;DHT22;5370;50.132;8.626;2022-08-03T14:05:01;35.90;24.30
10644;DHT22;5370;50.132;8.626;2022-08-03T14:07:27;35.90;24.20
10644;DHT22;5370;50.132;8.626;2022-08-03T14:09:52;35.90;24.50
10644;DHT22;5370;50.132;8.626;2022-08-03T14:12:18;35.90;24.60
10644;DHT22;5370;50.132;8.626;2022-08-03T14:14:43;36.00;24.50
10644;DHT22;5370;50.132;8.626;2022-08-03T14:17:09;36.10;24.60
10644;DHT22;5370;50.132;8.626;2022-08-03T14:19:34;36.10;24.40
10644;DHT22;5370;50.132;8.626;2022-08-03T14:22:00;36.10;24.40
10644;DHT22;5370;50.132;8.626;2022-08-03T14:24:25;36.10;24.20
10644;DHT22;5370;50.132;8.626;2022-08-03T14:26:51;36.20;24.20
10644;DHT22;5370;50.132;8.626;2022-08-03T14:29:16;36.20;24.30
10644;DHT22;5370;50.132;8.626;2022-08-03T14:31:42;36.20;24.20
10644;DHT22;5370;50.132;8.626;2022-08-03T14:34:08;36.30;24.20
10644;DHT22;5370;50.132;8.626;2022-08-03T14:36:33;36.30;24.20
10644;DHT22;5370;50.132;8.626;2022-08-03T14:38:59;36.30;24.10
10644;DHT22;5370;50.132;8.626;2022-08-03T14:41:24;36.20;24.00
10644;DHT22;5370;50.132;8.626;2022-08-03T14:43:50;36.20;24.00
10644;DHT22;5370;50.132;8.626;2022-08-03T14:46:15;36.20;24.00
10644;DHT22;5370;50.132;8.626;2022-08-03T14:48:41;36.30;24.20
10644;DHT22;5370;50.132;8.626;2022-08-03T14:51:07;36.20;24.10
10644;DHT22;5370;50.132;8.626;2022-08-03T14:53:33;36.20;24.20
10644;DHT22;5370;50.132;8.626;2022-08-03T14:55:59;36.30;24.10
10644;DHT22;5370;50.132;8.626;2022-08-03T14:58:24;36.20;24.00
10644;DHT22;5370;50.132;8.626;2022-08-03T15:00:52;36.10;24.10
10644;DHT22;5370;50.132;8.626;2022-08-03T15:03:19;35.90;24.10
10644;DHT22;5370;50.132;8.626;2022-08-03T15:05:48;35.60;24.50
10644;DHT22;5370;50.132;8.626;2022-08-03T15:08:13;35.30;24.80
10644;DHT22;5370;50.132;8.626;2022-08-03T15:10:39;35.20;25.40
10644;DHT22;5370;50.132;8.626;2022-08-03T15:13:04;35.10;25.00
10644;DHT22;5370;50.132;8.626;2022-08-03T15:15:30;35.20;25.00
10644;DHT22;5370;50.132;8.626;2022-08-03T15:17:56;35.20;24.90
10644;DHT22;5370;50.132;8.626;2022-08-03T15:20:21;35.20;25.10
10644;DHT22;5370;50.132;8.626;2022-08-03T15:22:47;35.30;25.00
10644;DHT22;5370;50.132;8.626;2022-08-03T15:25:12;35.40;25.10
10644;DHT22;5370;50.132;8.626;2022-08-03T15:27:38;35.40;25.00
10644;DHT22;5370;50.132;8.626;2022-08-03T15:30:04;35.50;25.10
10644;DHT22;5370;50.132;8.626;2022-08-03T15:32:32;35.50;25.00
10644;DHT22;5370;50.132;8.626;2022-08-03T15:34:58;35.50;25.00
10644;DHT22;5370;50.132;8.626;2022-08-03T15:37:23;35.60;24.80
10644;DHT22;5370;50.132;8.626;2022-08-03T15:39:50;35.70;24.60
10644;DHT22;5370;50.132;8.626;2022-08-03T15:42:15;35.70;24.50
10644;DHT22;5370;50.132;8.626;2022-08-03T15:44:41;35.70;24.40
10644;DHT22;5370;50.132;8.626;2022-08-03T15:47:06;35.70;24.50
10644;DHT22;5370;50.132;8.626;2022-08-03T15:49:32;35.70;24.40
10644;DHT22;5370;50.132;8.626;2022-08-03T15:51:57;35.80;24.40
10644;DHT22;5370;50.132;8.626;2022-08-03T15:54:23;35.80;24.40
10644;DHT22;5370;50.132;8.626;2022-08-03T15:56:49;35.80;24.30
10644;DHT22;5370;50.132;8.626;2022-08-03T15:59:15;35.80;24.40
10644;DHT22;5370;50.132;8.626;2022-08-03T16:01:40;35.70;24.40
10644;DHT22;5370;50.132;8.626;2022-08-03T16:04:07;35.70;24.40
10644;DHT22;5370;50.132;8.626;2022-08-03T16:06:33;35.70;24.50
10644;DHT22;5370;50.132;8.626;2022-08-03T16:08:58;35.70;24.50
10644;DHT22;5370;50.132;8.626;2022-08-03T16:11:24;35.60;24.50
10644;DHT22;5370;50.132;8.626;2022-08-03T16:13:50;35.60;24.60
10644;DHT22;5370;50.132;8.626;2022-08-03T16:16:15;35.60;24.60
10644;DHT22;5370;50.132;8.626;2022-08-03T16:18:41;35.60;24.70